Time;durP1;ratioP1;P1;durP2;ratioP2;P2;SDS_P1;SDS_P2;PMS_P1;PMS_P2;Temp;Humidity;BMP_temperature;BMP_pressure;BME280_temperature;BME280_humidity;BME280_pressure;Samples;Min_cycle;Max_cycle;Signal;HPM_P1;HPM_P2
2023/11/06 00:01:18;;;;;;;;;;;;;;;17.04;52.49;97560.63;10325017;28;1902;-70
2023/11/06 00:06:14;;;;;;;;;;;;;;;16.95;52.38;97563.97;10327170;28;877;-70
2023/11/06 00:11:10;;;;;;;;;;;;;;;16.99;52.51;97561.94;10332943;28;898;-70
2023/11/06 00:16:06;;;;;;;;;;;;;;;17.00;52.47;97563.59;10333019;28;822;-71
2023/11/06 00:21:02;;;;;;;;;;;;;;;16.96;52.74;97567.44;10332667;28;1959;-70
2023/11/06 00:25:58;;;;;;;;;;;;;;;16.93;52.86;97578.19;10332524;28;856;-71
2023/11/06 00:30:56;;;;;;;;;;;;;;;16.91;52.76;97590.63;10331952;28;1195;-71
2023/11/06 00:35:51;;;;;;;;;;;;;;;16.87;52.78;97587.34;10332242;28;864;-71
2023/11/06 00:40:48;;;;;;;;;;;;;;;16.88;52.91;97589.03;10331106;28;1975;-71
2023/11/06 00:45:44;;;;;;;;;;;;;;;16.84;52.88;97588.41;10332242;28;881;-71
2023/11/06 00:50:41;;;;;;;;;;;;;;;16.84;52.75;97596.31;10332123;28;870;-71
2023/11/06 00:55:39;;;;;;;;;;;;;;;16.85;52.88;97603.25;10331321;28;1671;-71
2023/11/06 01:00:35;;;;;;;;;;;;;;;16.80;52.94;97592.25;10331003;28;1897;-70
2023/11/06 01:05:31;;;;;;;;;;;;;;;16.82;52.95;97603.50;10330634;28;853;-70
2023/11/06 01:10:28;;;;;;;;;;;;;;;16.82;52.99;97598.22;10331110;28;895;-71
2023/11/06 01:15:24;;;;;;;;;;;;;;;16.83;52.76;97609.59;10330604;28;893;-70
2023/11/06 01:20:24;;;;;;;;;;;;;;;16.79;52.89;97610.75;10330137;28;1967;-71
2023/11/06 01:25:20;;;;;;;;;;;;;;;16.78;53.03;97630.13;10330210;28;913;-71
2023/11/06 01:30:17;;;;;;;;;;;;;;;16.75;52.94;97622.44;10330016;28;1357;-70
2023/11/06 01:35:13;;;;;;;;;;;;;;;16.77;53.07;97626.66;10329893;28;857;-71
2023/11/06 01:40:11;;;;;;;;;;;;;;;16.75;53.03;97632.97;10330543;28;1902;-71
2023/11/06 01:45:07;;;;;;;;;;;;;;;16.71;53.33;97642.00;10330348;28;892;-71
2023/11/06 01:50:03;;;;;;;;;;;;;;;16.71;53.10;97647.28;10329982;28;886;-70
2023/11/06 01:54:59;;;;;;;;;;;;;;;16.74;52.96;97657.56;10329130;28;790;-70
2023/11/06 01:59:55;;;;;;;;;;;;;;;16.69;53.01;97657.91;10328908;28;825;-70
2023/11/06 02:04:51;;;;;;;;;;;;;;;16.67;53.18;97667.72;10328659;28;1894;-70
2023/11/06 02:09:47;;;;;;;;;;;;;;;16.66;52.94;97666.00;10328797;28;948;-71
2023/11/06 02:14:43;;;;;;;;;;;;;;;16.64;53.02;97678.44;10328596;28;1020;-70
2023/11/06 02:19:39;;;;;;;;;;;;;;;16.65;53.18;97674.84;10328059;28;883;-71
2023/11/06 02:24:35;;;;;;;;;;;;;;;16.62;53.08;97680.34;10327754;28;1889;-71
2023/11/06 02:29:31;;;;;;;;;;;;;;;16.63;52.99;97685.47;10328116;28;1406;-71
2023/11/06 02:34:27;;;;;;;;;;;;;;;16.63;53.06;97693.38;10327740;28;949;-71
2023/11/06 02:39:23;;;;;;;;;;;;;;;16.63;53.05;97682.00;10327649;28;921;-70
2023/11/06 02:44:19;;;;;;;;;;;;;;;16.60;53.29;97700.66;10327647;28;1973;-71
2023/11/06 02:49:15;;;;;;;;;;;;;;;16.60;53.24;97704.13;10327509;28;822;-71
2023/11/06 02:54:11;;;;;;;;;;;;;;;16.59;53.19;97712.97;10326755;28;957;-71
2023/11/06 02:59:07;;;;;;;;;;;;;;;16.62;53.28;97725.06;10327204;28;850;-71
2023/11/06 03:04:03;;;;;;;;;;;;;;;16.59;53.17;97735.81;10325780;28;1890;-70
2023/11/06 03:08:59;;;;;;;;;;;;;;;16.58;53.24;97749.88;10326222;28;767;-71
2023/11/06 03:13:55;;;;;;;;;;;;;;;16.55;53.40;97758.00;10326169;28;814;-71
2023/11/06 03:18:51;;;;;;;;;;;;;;;16.55;53.14;97765.88;10325987;28;896;-70
2023/11/06 03:23:47;;;;;;;;;;;;;;;16.54;53.17;97766.84;10326169;28;1963;-70
2023/11/06 03:28:43;;;;;;;;;;;;;;;16.53;53.37;97788.81;10325695;28;919;-71
2023/11/06 03:33:39;;;;;;;;;;;;;;;16.53;53.45;97786.19;10284880;28;877;-70
2023/11/06 03:38:35;;;;;;;;;;;;;;;16.50;53.29;97789.88;10284766;28;890;-70
2023/11/06 03:43:31;;;;;;;;;;;;;;;16.51;53.42;97798.63;10283409;28;1911;-71
2023/11/06 03:48:27;;;;;;;;;;;;;;;16.51;53.26;97817.03;10284504;28;894;-70
2023/11/06 03:53:23;;;;;;;;;;;;;;;16.49;53.17;97817.13;10284392;28;937;-71
2023/11/06 03:58:19;;;;;;;;;;;;;;;16.46;53.32;97830.47;10284954;28;990;-70
2023/11/06 04:03:15;;;;;;;;;;;;;;;16.48;53.47;97828.59;10284214;28;1902;-70
2023/11/06 04:08:11;;;;;;;;;;;;;;;16.44;53.22;97830.56;10284856;28;795;-70
2023/11/06 04:13:06;;;;;;;;;;;;;;;16.43;53.28;97834.16;10284662;28;879;-71
2023/11/06 04:18:04;;;;;;;;;;;;;;;16.44;53.33;97848.16;10283898;28;863;-71
2023/11/06 04:23:00;;;;;;;;;;;;;;;16.44;53.21;97862.13;10283836;28;1961;-70
2023/11/06 04:27:57;;;;;;;;;;;;;;;16.44;53.20;97870.03;10283722;28;892;-71
2023/11/06 04:32:53;;;;;;;;;;;;;;;16.42;53.41;97874.53;10318577;28;1092;-70
2023/11/06 04:37:48;;;;;;;;;;;;;;;16.42;53.44;97884.22;10324142;28;940;-71
2023/11/06 04:42:44;;;;;;;;;;;;;;;16.39;53.53;97887.88;10323603;28;1917;-70
2023/11/06 04:47:40;;;;;;;;;;;;;;;16.38;53.38;97893.28;10324172;28;1120;-71
2023/11/06 04:52:36;;;;;;;;;;;;;;;16.39;53.32;97889.69;10323679;28;755;-70
2023/11/06 04:57:32;;;;;;;;;;;;;;;16.41;52.80;97893.06;10331404;28;910;-70
2023/11/06 05:02:28;;;;;;;;;;;;;;;16.42;52.65;97905.25;10331027;28;1889;-71
2023/11/06 05:07:25;;;;;;;;;;;;;;;16.52;52.50;97905.47;10331691;28;864;-71
2023/11/06 05:12:20;;;;;;;;;;;;;;;16.66;52.30;97910.63;10330690;28;1086;-70
2023/11/06 05:17:16;;;;;;;;;;;;;;;16.74;51.70;97918.00;10330699;28;826;-70
2023/11/06 05:22:12;;;;;;;;;;;;;;;16.79;51.76;97918.56;10329787;28;1894;-71
2023/11/06 05:27:08;;;;;;;;;;;;;;;16.87;51.80;97921.53;10330886;28;865;-71
2023/11/06 05:32:05;;;;;;;;;;;;;;;16.96;51.37;97925.34;10329918;28;1375;-71
2023/11/06 05:37:01;;;;;;;;;;;;;;;17.03;51.37;97934.50;10330554;28;873;-71
2023/11/06 05:41:56;;;;;;;;;;;;;;;17.07;51.44;97938.59;10329575;28;1906;-71
2023/11/06 05:46:52;;;;;;;;;;;;;;;17.11;51.07;97940.06;10330295;28;853;-71
2023/11/06 05:51:49;;;;;;;;;;;;;;;17.16;51.21;97948.50;10329929;28;826;-71
2023/11/06 05:56:45;;;;;;;;;;;;;;;17.19;50.65;97964.06;10329052;28;885;-73
2023/11/06 06:01:40;;;;;;;;;;;;;;;17.20;51.07;97981.53;10329375;28;1894;-71
2023/11/06 06:06:36;;;;;;;;;;;;;;;17.25;50.86;97976.81;10328638;28;893;-72
2023/11/06 06:11:37;;;;;;;;;;;;;;;17.28;50.98;97987.13;10328411;28;856;-71
2023/11/06 06:16:34;;;;;;;;;;;;;;;17.28;50.78;98005.56;10328819;28;902;-72
2023/11/06 06:21:29;;;;;;;;;;;;;;;17.30;51.22;98008.09;10329167;28;1871;-71
2023/11/06 06:26:25;;;;;;;;;;;;;;;17.39;50.65;98009.25;10328580;28;822;-71
2023/11/06 06:31:21;;;;;;;;;;;;;;;17.36;50.85;98022.63;10328413;28;1246;-74
2023/11/06 06:36:17;;;;;;;;;;;;;;;17.38;50.96;98026.00;10327776;28;798;-71
2023/11/06 06:41:14;;;;;;;;;;;;;;;17.40;51.24;98029.38;10327241;28;1902;-71
2023/11/06 06:46:10;;;;;;;;;;;;;;;17.37;50.92;98037.47;10327926;28;885;-71
2023/11/06 06:51:06;;;;;;;;;;;;;;;17.39;51.29;98046.09;10327013;28;912;-72
2023/11/06 06:56:02;;;;;;;;;;;;;;;17.43;51.53;98052.88;10327695;28;864;-73
2023/11/06 07:00:58;;;;;;;;;;;;;;;17.45;51.32;98048.34;10326542;28;1949;-71
2023/11/06 07:05:54;;;;;;;;;;;;;;;17.41;51.03;98060.84;10326410;28;932;-71
2023/11/06 07:10:50;;;;;;;;;;;;;;;17.39;51.24;98070.66;10326236;28;870;-71
2023/11/06 07:15:46;;;;;;;;;;;;;;;17.35;51.46;98069.19;10325448;28;929;-71
2023/11/06 07:20:42;;;;;;;;;;;;;;;17.30;51.41;98069.50;10326101;28;1894;-71
2023/11/06 07:25:38;;;;;;;;;;;;;;;17.30;51.56;98082.66;10325869;28;782;-72
2023/11/06 07:30:34;;;;;;;;;;;;;;;17.25;52.01;98089.19;10326637;28;1451;-71
2023/11/06 07:35:30;;;;;;;;;;;;;;;17.21;51.81;98114.91;10325612;28;893;-71
2023/11/06 07:40:26;;;;;;;;;;;;;;;17.21;51.94;98095.59;10325419;28;1918;-71
2023/11/06 07:45:22;;;;;;;;;;;;;;;17.23;51.88;98105.06;10325566;28;810;-71
2023/11/06 07:50:18;;;;;;;;;;;;;;;17.31;51.69;98097.50;10325322;28;945;-72
2023/11/06 07:55:14;;;;;;;;;;;;;;;17.32;51.53;98116.81;10325831;28;908;-71
2023/11/06 08:00:13;;;;;;;;;;;;;;;17.26;51.73;98117.19;10324432;28;1914;-72
2023/11/06 08:05:08;;;;;;;;;;;;;;;17.35;51.29;98111.31;10324971;28;948;-73
2023/11/06 08:10:05;;;;;;;;;;;;;;;17.37;51.51;98132.28;10324958;28;847;-71
2023/11/06 08:15:03;;;;;;;;;;;;;;;17.38;51.50;98133.97;10324801;28;890;-81
2023/11/06 08:19:59;;;;;;;;;;;;;;;17.39;51.51;98133.03;10324656;28;905;-71
2023/11/06 08:24:55;;;;;;;;;;;;;;;17.42;51.17;98141.59;10325816;28;1893;-71
2023/11/06 08:29:52;;;;;;;;;;;;;;;17.45;51.21;98143.16;10330563;28;1434;-72
2023/11/06 08:34:48;;;;;;;;;;;;;;;17.47;51.19;98163.16;10332955;28;854;-71
2023/11/06 08:39:45;;;;;;;;;;;;;;;17.47;51.20;98157.88;10331533;28;854;-72
2023/11/06 08:44:41;;;;;;;;;;;;;;;17.50;50.91;98159.47;10330690;28;1976;-71
2023/11/06 08:49:36;;;;;;;;;;;;;;;17.52;50.42;98166.31;10330651;28;885;-71
2023/11/06 08:54:34;;;;;;;;;;;;;;;17.49;50.83;98170.97;10332112;28;833;-70
2023/11/06 08:59:30;;;;;;;;;;;;;;;17.47;50.77;98168.41;10331403;28;854;-70
2023/11/06 09:04:26;;;;;;;;;;;;;;;17.40;50.80;98168.97;10331116;28;1917;-71
2023/11/06 09:09:21;;;;;;;;;;;;;;;17.46;50.46;98169.38;10331158;28;849;-70
2023/11/06 09:14:17;;;;;;;;;;;;;;;17.47;50.44;98167.59;10327900;28;995;-70
2023/11/06 09:19:13;;;;;;;;;;;;;;;17.45;50.34;98180.03;10328815;28;1055;-71
2023/11/06 09:24:09;;;;;;;;;;;;;;;17.51;50.35;98191.00;10330093;28;1899;-71
2023/11/06 09:29:06;;;;;;;;;;;;;;;17.59;50.22;98179.94;10327992;28;1269;-72
2023/11/06 09:34:02;;;;;;;;;;;;;;;17.59;50.39;98193.13;10329852;28;815;-71
2023/11/06 09:38:58;;;;;;;;;;;;;;;17.57;50.09;98192.38;10328487;28;852;-71
2023/11/06 09:43:55;;;;;;;;;;;;;;;17.65;50.06;98210.31;10329389;28;1911;-71
2023/11/06 09:48:51;;;;;;;;;;;;;;;17.64;50.14;98227.91;10329397;28;930;-72
2023/11/06 09:53:47;;;;;;;;;;;;;;;17.70;50.22;98226.66;10328612;28;1055;-72
2023/11/06 09:58:43;;;;;;;;;;;;;;;17.66;50.26;98227.81;10329075;28;930;-71
2023/11/06 10:03:39;;;;;;;;;;;;;;;17.67;50.12;98227.69;10329272;28;1894;-73
2023/11/06 10:08:35;;;;;;;;;;;;;;;17.66;50.23;98212.00;10328333;28;847;-71
2023/11/06 10:13:31;;;;;;;;;;;;;;;17.69;50.42;98219.69;10328161;28;853;-71
2023/11/06 10:18:27;;;;;;;;;;;;;;;17.72;50.22;98235.31;10327631;28;1570;-72
2023/11/06 10:23:24;;;;;;;;;;;;;;;17.71;50.23;98218.66;10327687;28;1894;-71
2023/11/06 10:28:20;;;;;;;;;;;;;;;17.72;50.17;98230.88;10327246;28;1559;-75
2023/11/06 10:33:16;;;;;;;;;;;;;;;17.79;49.66;98246.25;10328267;28;1481;-71
2023/11/06 10:38:12;;;;;;;;;;;;;;;17.75;49.88;98238.56;10327475;28;781;-72
2023/11/06 10:43:07;;;;;;;;;;;;;;;17.73;50.13;98242.25;10327025;28;1914;-71
2023/11/06 10:48:04;;;;;;;;;;;;;;;17.75;50.07;98235.94;10326582;28;856;-72
2023/11/06 10:53:00;;;;;;;;;;;;;;;17.79;49.91;98235.72;10325543;28;933;-71
2023/11/06 10:57:56;;;;;;;;;;;;;;;17.74;50.07;98233.41;10326107;28;937;-71
2023/11/06 11:02:52;;;;;;;;;;;;;;;17.78;50.24;98239.31;10326215;28;1906;-71
2023/11/06 11:07:48;;;;;;;;;;;;;;;17.80;50.16;98234.81;10325814;28;842;-72
2023/11/06 11:12:44;;;;;;;;;;;;;;;17.78;50.25;98237.50;10326515;28;795;-72
2023/11/06 11:17:40;;;;;;;;;;;;;;;17.73;50.05;98245.72;10326110;28;881;-71
2023/11/06 11:22:36;;;;;;;;;;;;;;;17.78;49.91;98236.69;10325901;28;1949;-71
2023/11/06 11:27:32;;;;;;;;;;;;;;;17.79;50.08;98251.53;10325837;28;802;-74
2023/11/06 11:32:28;;;;;;;;;;;;;;;17.71;49.93;98246.78;10325548;28;1219;-73
2023/11/06 11:37:24;;;;;;;;;;;;;;;17.72;49.95;98257.22;10326030;28;894;-71
2023/11/06 11:42:21;;;;;;;;;;;;;;;17.78;49.67;98260.41;10326021;28;1977;-71
2023/11/06 11:47:16;;;;;;;;;;;;;;;17.83;49.51;98253.06;10325971;28;817;-71
2023/11/06 11:52:13;;;;;;;;;;;;;;;17.87;49.35;98273.00;10326220;28;841;-71
2023/11/06 11:57:09;;;;;;;;;;;;;;;17.88;49.55;98264.97;10325181;28;889;-70
2023/11/06 12:02:05;;;;;;;;;;;;;;;17.96;49.44;98264.47;10326461;28;1949;-71
2023/11/06 12:07:01;;;;;;;;;;;;;;;17.96;49.73;98269.72;10331065;28;1152;-71
2023/11/06 12:11:57;;;;;;;;;;;;;;;17.96;49.54;98273.22;10332751;28;798;-71
2023/11/06 12:16:54;;;;;;;;;;;;;;;17.97;49.29;98279.31;10332999;28;798;-71
2023/11/06 12:21:50;;;;;;;;;;;;;;;17.91;49.39;98282.38;10332948;28;1897;-71
2023/11/06 12:26:45;;;;;;;;;;;;;;;17.83;49.49;98279.41;10332706;28;889;-68
2023/11/06 12:31:42;;;;;;;;;;;;;;;17.80;49.59;98284.91;10332024;28;1164;-68
2023/11/06 12:36:39;;;;;;;;;;;;;;;17.80;49.46;98290.16;10332871;28;874;-68
2023/11/06 12:41:39;;;;;;;;;;;;;;;17.81;49.71;98292.69;10332881;28;1973;-72
2023/11/06 12:46:35;;;;;;;;;;;;;;;17.92;49.63;98289.31;10331911;28;927;-74
2023/11/06 12:51:32;;;;;;;;;;;;;;;17.86;50.02;98297.66;10331263;28;913;-71
2023/11/06 12:56:28;;;;;;;;;;;;;;;17.86;50.33;98282.69;10332322;28;893;-71
2023/11/06 13:01:29;;;;;;;;;;;;;;;17.86;50.62;98287.94;10331869;28;1898;-70
2023/11/06 13:06:27;;;;;;;;;;;;;;;17.85;51.17;98273.09;10331902;28;767;-71
2023/11/06 13:11:23;;;;;;;;;;;;;;;17.87;51.02;98288.81;10330913;28;984;-71
2023/11/06 13:16:19;;;;;;;;;;;;;;;17.86;51.28;98290.59;10329820;28;814;-71
2023/11/06 13:21:19;;;;;;;;;;;;;;;17.81;51.39;98286.56;10329234;28;1945;-70
2023/11/06 13:26:15;;;;;;;;;;;;;;;17.86;51.36;98279.19;10330865;28;938;-70
2023/11/06 13:31:11;;;;;;;;;;;;;;;17.86;51.28;98289.75;10330739;28;1120;-70
2023/11/06 13:36:07;;;;;;;;;;;;;;;17.83;51.18;98282.88;10330180;28;882;-71
2023/11/06 13:41:08;;;;;;;;;;;;;;;17.93;50.92;98291.03;10329816;28;1914;-70
2023/11/06 13:46:04;;;;;;;;;;;;;;;18.02;50.75;98279.03;10330824;28;849;-70
2023/11/06 13:51:01;;;;;;;;;;;;;;;17.98;50.71;98278.38;10329702;28;854;-70
2023/11/06 14:01:12;;;;;;;;;;;;;;;17.92;50.67;98281.41;10329626;28;1881;-70
2023/11/06 14:06:16;;;;;;;;;;;;;;;17.93;50.20;98293.66;10328819;28;870;-70
2023/11/06 14:11:12;;;;;;;;;;;;;;;17.92;50.25;98290.19;10328914;28;847;-70
2023/11/06 14:16:08;;;;;;;;;;;;;;;17.93;50.22;98285.75;10328525;28;774;-69
2023/11/06 14:21:04;;;;;;;;;;;;;;;17.93;50.40;98289.25;10328142;28;1898;-68
2023/11/06 14:26:00;;;;;;;;;;;;;;;18.08;50.10;98292.66;10328418;28;775;-71
2023/11/06 14:30:56;;;;;;;;;;;;;;;18.24;49.70;98296.88;10327954;28;1407;-71
2023/11/06 14:35:52;;;;;;;;;;;;;;;18.35;49.37;98308.38;10327650;28;862;-71
2023/11/06 14:40:48;;;;;;;;;;;;;;;18.14;49.53;98302.78;10327315;28;1977;-71
2023/11/06 14:45:44;;;;;;;;;;;;;;;18.00;49.63;98310.78;10327873;28;901;-71
2023/11/06 14:50:40;;;;;;;;;;;;;;;17.88;50.08;98315.06;10327068;28;810;-71
2023/11/06 14:55:36;;;;;;;;;;;;;;;17.82;50.25;98322.53;10326830;28;830;-71
2023/11/06 15:00:32;;;;;;;;;;;;;;;17.92;50.23;98318.31;10327249;28;1967;-71
2023/11/06 15:05:29;;;;;;;;;;;;;;;17.84;50.67;98316.22;10327068;28;932;-73
2023/11/06 15:10:26;;;;;;;;;;;;;;;17.73;50.77;98311.59;10326309;28;850;-71
2023/11/06 15:15:22;;;;;;;;;;;;;;;17.78;50.53;98313.09;10326175;28;834;-71
2023/11/06 15:20:18;;;;;;;;;;;;;;;17.77;50.73;98319.34;10326719;28;888;-71
2023/11/06 15:25:16;;;;;;;;;;;;;;;17.75;50.21;98320.25;10325797;28;1894;-71
2023/11/06 15:30:14;;;;;;;;;;;;;;;17.79;50.54;98312.16;10325774;28;1318;-71
2023/11/06 15:35:10;;;;;;;;;;;;;;;17.79;50.36;98334.13;10326283;28;787;-71
2023/11/06 15:40:06;;;;;;;;;;;;;;;17.79;50.64;98327.97;10325559;28;814;-71
2023/11/06 15:45:03;;;;;;;;;;;;;;;17.80;50.52;98337.59;10325458;28;1909;-71
2023/11/06 15:49:59;;;;;;;;;;;;;;;17.78;50.44;98328.91;10325979;28;960;-68
2023/11/06 15:54:55;;;;;;;;;;;;;;;17.71;50.61;98324.06;10325856;28;790;-72
2023/11/06 15:59:51;;;;;;;;;;;;;;;17.77;50.61;98330.72;10325769;28;814;-68
2023/11/06 16:04:47;;;;;;;;;;;;;;;17.76;50.27;98336.91;10325190;28;1894;-71
2023/11/06 16:09:44;;;;;;;;;;;;;;;17.78;50.45;98331.56;10325955;28;914;-72
2023/11/06 16:14:40;;;;;;;;;;;;;;;17.77;50.31;98345.69;10324325;28;865;-71
2023/11/06 16:19:36;;;;;;;;;;;;;;;17.80;50.10;98353.41;10324861;28;904;-71
2023/11/06 16:24:33;;;;;;;;;;;;;;;17.82;50.14;98362.09;10325487;28;1902;-72
2023/11/06 16:29:31;;;;;;;;;;;;;;;17.81;49.64;98370.91;10324868;28;1720;-71
2023/11/06 16:34:27;;;;;;;;;;;;;;;17.81;50.30;98365.63;10324505;28;893;-72
2023/11/06 16:39:23;;;;;;;;;;;;;;;17.83;49.98;98363.75;10324432;28;781;-71
2023/11/06 16:44:19;;;;;;;;;;;;;;;17.83;49.48;98379.56;10324217;28;1910;-72
2023/11/06 16:49:15;;;;;;;;;;;;;;;17.80;49.53;98411.41;10327909;28;1115;-72
2023/11/06 16:54:11;;;;;;;;;;;;;;;17.81;49.91;98413.09;10332260;28;817;-72
2023/11/06 16:59:07;;;;;;;;;;;;;;;17.89;50.05;98452.97;10331512;28;822;-73
2023/11/06 17:04:03;;;;;;;;;;;;;;;17.93;50.00;98476.41;10332133;28;1956;-72
2023/11/06 17:09:01;;;;;;;;;;;;;;;17.94;50.28;98471.97;10331883;28;885;-72
2023/11/06 17:13:57;;;;;;;;;;;;;;;17.98;50.21;98481.41;10330306;28;972;-72
2023/11/06 17:18:53;;;;;;;;;;;;;;;17.97;50.40;98487.59;10330772;28;770;-72
2023/11/06 17:23:49;;;;;;;;;;;;;;;17.93;50.36;98491.38;10330475;28;1955;-72
2023/11/06 17:28:46;;;;;;;;;;;;;;;17.96;50.65;98499.09;10330722;28;1119;-72
2023/11/06 17:33:41;;;;;;;;;;;;;;;18.00;50.63;98497.09;10330131;28;890;-71
2023/11/06 17:38:37;;;;;;;;;;;;;;;17.98;50.71;98493.72;10329740;28;880;-72
2023/11/06 17:43:34;;;;;;;;;;;;;;;17.98;50.81;98510.38;10329759;28;1969;-72
2023/11/06 17:48:30;;;;;;;;;;;;;;;18.01;50.78;98501.44;10330564;28;869;-72
2023/11/06 17:53:26;;;;;;;;;;;;;;;18.04;50.86;98515.25;10330065;28;806;-71
2023/11/06 17:58:22;;;;;;;;;;;;;;;18.02;50.79;98517.16;10329926;28;896;-72
2023/11/06 18:03:18;;;;;;;;;;;;;;;18.01;51.00;98525.16;10328590;28;1893;-72
2023/11/06 18:08:14;;;;;;;;;;;;;;;18.01;50.90;98525.16;10328916;28;889;-72
2023/11/06 18:13:11;;;;;;;;;;;;;;;18.01;50.90;98533.91;10328676;28;838;-71
2023/11/06 18:18:07;;;;;;;;;;;;;;;18.01;50.98;98541.84;10329058;28;786;-72
2023/11/06 18:23:06;;;;;;;;;;;;;;;18.05;50.83;98560.94;10328362;28;1894;-72
2023/11/06 18:28:03;;;;;;;;;;;;;;;18.06;50.79;98555.56;10328687;28;886;-71
2023/11/06 18:32:59;;;;;;;;;;;;;;;18.05;51.02;98559.16;10327046;28;1254;-71
2023/11/06 18:37:55;;;;;;;;;;;;;;;18.04;50.98;98575.91;10328253;28;872;-72
2023/11/06 18:42:51;;;;;;;;;;;;;;;18.09;50.87;98570.34;10327410;28;1914;-72
2023/11/06 18:47:46;;;;;;;;;;;;;;;18.07;50.96;98583.63;10327258;28;969;-72
2023/11/06 18:52:42;;;;;;;;;;;;;;;18.04;51.08;98586.47;10328351;28;920;-70
2023/11/06 18:57:38;;;;;;;;;;;;;;;18.06;50.93;98587.22;10326886;28;964;-72
2023/11/06 19:02:34;;;;;;;;;;;;;;;18.10;50.91;98604.56;10326625;28;1898;-72
2023/11/06 19:07:30;;;;;;;;;;;;;;;18.08;51.09;98605.59;10326433;28;893;-71
2023/11/06 19:12:26;;;;;;;;;;;;;;;18.07;50.91;98612.63;10324810;28;1003;-72
2023/11/06 19:17:22;;;;;;;;;;;;;;;18.11;50.87;98616.78;10326199;28;822;-72
2023/11/06 19:22:18;;;;;;;;;;;;;;;18.10;50.91;98630.91;10325965;28;1898;-72
2023/11/06 19:27:14;;;;;;;;;;;;;;;18.09;50.70;98629.22;10326555;28;829;-72
2023/11/06 19:32:10;;;;;;;;;;;;;;;18.12;50.77;98633.44;10325873;28;1089;-71
2023/11/06 19:37:06;;;;;;;;;;;;;;;18.12;50.79;98639.56;10326265;28;822;-71
2023/11/06 19:42:02;;;;;;;;;;;;;;;18.09;51.02;98642.38;10325530;28;1918;-72
2023/11/06 19:46:58;;;;;;;;;;;;;;;18.11;50.82;98637.88;10326100;28;826;-72
2023/11/06 19:51:53;;;;;;;;;;;;;;;18.15;50.68;98657.81;10325409;28;886;-72
2023/11/06 19:56:49;;;;;;;;;;;;;;;18.14;50.77;98648.22;10325956;28;837;-71
2023/11/06 20:01:45;;;;;;;;;;;;;;;18.10;50.82;98662.56;10325199;28;1898;-72
2023/11/06 20:06:42;;;;;;;;;;;;;;;18.14;50.63;98658.78;10325055;28;866;-72
2023/11/06 20:11:39;;;;;;;;;;;;;;;18.17;50.53;98669.13;10325038;28;759;-71
2023/11/06 20:16:38;;;;;;;;;;;;;;;18.15;50.56;98675.44;10325523;28;814;-71
2023/11/06 20:21:34;;;;;;;;;;;;;;;18.12;50.85;98689.66;10325278;28;1955;-72
2023/11/06 20:26:30;;;;;;;;;;;;;;;18.15;50.59;98686.00;10331714;28;968;-72
2023/11/06 20:31:26;;;;;;;;;;;;;;;18.15;50.74;98689.47;10332605;28;1515;-72
2023/11/06 20:36:22;;;;;;;;;;;;;;;18.13;50.57;98698.41;10332400;28;882;-72
2023/11/06 20:41:18;;;;;;;;;;;;;;;18.09;50.88;98703.03;10332148;28;1906;-71
2023/11/06 20:46:14;;;;;;;;;;;;;;;18.10;50.59;98707.41;10332003;28;771;-72
2023/11/06 20:51:10;;;;;;;;;;;;;;;18.10;50.71;98702.13;10332441;28;865;-72
2023/11/06 20:56:07;;;;;;;;;;;;;;;18.11;50.58;98710.88;10332563;28;885;-72
2023/11/06 21:01:03;;;;;;;;;;;;;;;18.08;50.84;98717.19;10331328;28;1934;-72
2023/11/06 21:05:58;;;;;;;;;;;;;;;18.07;50.65;98723.38;10331326;28;937;-72
2023/11/06 21:10:54;;;;;;;;;;;;;;;18.08;50.39;98724.25;10331721;28;869;-72
2023/11/06 21:15:50;;;;;;;;;;;;;;;18.06;50.75;98726.97;10330835;28;960;-71
2023/11/06 21:20:46;;;;;;;;;;;;;;;18.04;50.49;98720.94;10330740;28;1902;-72
2023/11/06 21:25:42;;;;;;;;;;;;;;;18.06;49.96;98732.25;10331628;28;814;-72
2023/11/06 21:30:38;;;;;;;;;;;;;;;18.01;50.64;98729.03;10330548;28;1113;-72
2023/11/06 21:35:34;;;;;;;;;;;;;;;18.05;50.61;98727.91;10329202;28;976;-71
2023/11/06 21:40:31;;;;;;;;;;;;;;;18.03;50.49;98731.59;10330650;28;1044;-72
2023/11/06 21:45:28;;;;;;;;;;;;;;;18.01;50.63;98728.19;10329732;28;1901;-72
2023/11/06 21:50:24;;;;;;;;;;;;;;;18.00;50.37;98743.16;10329628;28;862;-72
2023/11/06 21:55:21;;;;;;;;;;;;;;;17.99;50.76;98733.53;10329478;28;933;-72
2023/11/06 22:00:18;;;;;;;;;;;;;;;18.00;50.65;98737.03;10329246;28;881;-72
2023/11/06 22:05:17;;;;;;;;;;;;;;;17.97;50.79;98740.69;10328962;28;1906;-72
2023/11/06 22:10:13;;;;;;;;;;;;;;;17.94;50.85;98751.44;10328888;28;890;-71
2023/11/06 22:15:09;;;;;;;;;;;;;;;17.88;50.95;98765.81;10328747;28;825;-72
2023/11/06 22:20:05;;;;;;;;;;;;;;;17.85;50.97;98766.00;10329063;28;882;-71
2023/11/06 22:25:00;;;;;;;;;;;;;;;17.82;50.85;98768.84;10328205;28;1949;-72
2023/11/06 22:29:56;;;;;;;;;;;;;;;17.78;50.86;98772.53;10328618;28;1733;-72
2023/11/06 22:34:52;;;;;;;;;;;;;;;17.77;50.75;98780.56;10327851;28;878;-72
2023/11/06 22:39:48;;;;;;;;;;;;;;;17.73;50.74;98790.41;10328234;28;921;-72
2023/11/06 22:44:44;;;;;;;;;;;;;;;17.69;50.57;98784.47;10327443;28;1918;-72
2023/11/06 22:49:40;;;;;;;;;;;;;;;17.65;50.79;98788.22;10327096;28;798;-72
2023/11/06 22:54:36;;;;;;;;;;;;;;;17.64;50.70;98783.91;10327075;28;774;-72
2023/11/06 22:59:32;;;;;;;;;;;;;;;17.58;50.95;98789.53;10327380;28;879;-72
2023/11/06 23:04:28;;;;;;;;;;;;;;;17.57;51.24;98805.41;10326567;28;1963;-72
2023/11/06 23:09:24;;;;;;;;;;;;;;;17.49;51.38;98809.34;10325837;28;1033;-72
2023/11/06 23:14:20;;;;;;;;;;;;;;;17.45;51.34;98809.63;10326100;28;874;-72
2023/11/06 23:19:16;;;;;;;;;;;;;;;17.45;51.36;98804.34;10326955;28;943;-72
2023/11/06 23:24:12;;;;;;;;;;;;;;;17.43;51.59;98808.84;10326921;28;1898;-71
2023/11/06 23:29:08;;;;;;;;;;;;;;;17.43;51.38;98816.75;10325926;28;1147;-71
2023/11/06 23:34:04;;;;;;;;;;;;;;;17.40;51.38;98816.94;10325884;28;818;-71
2023/11/06 23:39:00;;;;;;;;;;;;;;;17.36;51.28;98805.69;10325333;28;1008;-71
2023/11/06 23:43:56;;;;;;;;;;;;;;;17.34;51.43;98809.34;10325865;28;1910;-72
2023/11/06 23:48:52;;;;;;;;;;;;;;;17.33;51.34;98812.94;10325524;28;872;-72
2023/11/06 23:53:48;;;;;;;;;;;;;;;17.31;51.54;98816.50;10325349;28;877;-72
2023/11/06 23:58:44;;;;;;;;;;;;;;;17.27;51.59;98814.13;10324774;28;787;-72
